Time;durP1;ratioP1;P1;durP2;ratioP2;P2;SDS_P1;SDS_P2;PMS_P1;PMS_P2;Temp;Humidity;BMP_temperature;BMP_pressure;BME280_temperature;BME280_humidity;BME280_pressure;Samples;Min_cycle;Max_cycle;Signal;HPM_P1;HPM_P2
2022/01/21 00:00:16;;;;;;;16.33;6.13;;;-0.80;98.00;;;;;;5039784;28;20071;-66
2022/01/21 00:02:44;;;;;;;9.98;5.07;;;-0.80;98.00;;;;;;5034511;28;20424;-66
2022/01/21 00:05:10;;;;;;;18.25;5.40;;;-0.90;98.00;;;;;;5037050;28;20044;-67
2022/01/21 00:07:36;;;;;;;17.25;5.90;;;-0.80;98.00;;;;;;5050447;28;20036;-67
2022/01/21 00:10:03;;;;;;;17.38;6.05;;;-0.80;98.00;;;;;;5046132;28;20021;-66
2022/01/21 00:12:30;;;;;;;16.55;6.75;;;-0.80;98.00;;;;;;5035393;28;20428;-67
2022/01/21 00:14:56;;;;;;;15.30;5.53;;;-0.80;98.00;;;;;;5050945;28;20100;-67
2022/01/21 00:17:23;;;;;;;14.27;5.70;;;-0.80;98.00;;;;;;5039169;28;20108;-68
2022/01/21 00:30:01;;;;;;;12.85;5.72;;;-0.80;98.00;;;;;;5035759;28;20025;-67
2022/01/21 00:30:49;;;;;;;9.73;4.78;;;-0.80;98.00;;;;;;5038236;28;20120;-66
2022/01/21 00:33:14;;;;;;;10.68;4.80;;;-0.90;98.00;;;;;;5036553;28;20120;-69
2022/01/21 00:35:40;;;;;;;15.77;5.35;;;-0.90;98.00;;;;;;5036167;28;20099;-67
2022/01/21 00:38:06;;;;;;;13.40;5.55;;;-0.90;98.00;;;;;;5036842;28;20029;-67
2022/01/21 00:40:33;;;;;;;14.27;4.95;;;-0.90;98.00;;;;;;5041979;28;20423;-66
2022/01/21 00:45:39;;;;;;;15.27;5.90;;;-0.90;98.00;;;;;;5041678;28;20108;-67
2022/01/21 00:48:06;;;;;;;15.45;5.32;;;-0.90;98.00;;;;;;5045912;28;20115;-67
2022/01/21 00:50:32;;;;;;;25.40;7.30;;;-0.90;98.00;;;;;;5038729;28;20465;-67
2022/01/21 00:52:58;;;;;;;16.08;5.72;;;-0.90;98.00;;;;;;5040540;28;20022;-67
2022/01/21 00:55:23;;;;;;;15.07;5.43;;;-0.90;98.00;;;;;;5050713;28;20052;-67
2022/01/21 00:57:49;;;;;;;8.93;4.53;;;-1.00;98.00;;;;;;5053875;28;20021;-67
2022/01/21 01:00:16;;;;;;;19.80;5.78;;;-1.00;98.00;;;;;;5047477;28;20021;-66
2022/01/21 01:02:41;;;;;;;16.42;5.70;;;-1.00;98.00;;;;;;5055106;28;20418;-67
2022/01/21 01:05:09;;;;;;;17.27;6.07;;;-1.00;98.00;;;;;;5052565;28;20086;-66
2022/01/21 01:07:35;;;;;;;17.58;6.15;;;-1.00;98.00;;;;;;5054137;28;20369;-67
2022/01/21 01:10:02;;;;;;;16.88;5.55;;;-1.00;98.00;;;;;;5047293;28;20240;-66
2022/01/21 01:20:25;;;;;;;;;;;-1.10;98.00;;;;;;5050586;28;20059;-68
2022/01/21 01:22:53;;;;;;;16.50;5.22;;;-1.00;98.00;;;;;;5050824;28;19956;-68
2022/01/21 01:28:04;;;;;;;19.92;5.80;;;-1.00;98.00;;;;;;5044646;28;20033;-69
2022/01/21 01:30:32;;;;;;;20.63;5.45;;;-1.10;98.00;;;;;;5071283;28;20029;-68
2022/01/21 01:33:00;;;;;;;20.10;5.70;;;-1.10;98.00;;;;;;5053555;28;20033;-68
2022/01/21 01:35:30;;;;;;;12.43;4.43;;;-1.10;98.00;;;;;;5058035;28;20049;-68
2022/01/21 01:40:45;;;;;;;15.80;4.78;;;-1.10;98.00;;;;;;5045885;28;20326;-67
2022/01/21 01:50:59;;;;;;;11.93;4.82;;;-1.10;98.00;;;;;;5041521;28;20037;-68
2022/01/21 01:53:52;;;;;;;18.10;6.15;;;-1.10;98.00;;;;;;5044156;28;20028;-68
2022/01/21 01:56:22;;;;;;;12.98;4.80;;;-1.10;98.00;;;;;;5045019;28;20017;-67
2022/01/21 01:58:47;;;;;;;18.23;5.25;;;-1.20;98.00;;;;;;5060765;28;20029;-67
2022/01/21 02:01:15;;;;;;;15.02;5.88;;;-1.20;98.00;;;;;;5041953;28;20025;-66
2022/01/21 02:03:41;;;;;;;17.02;5.50;;;-1.10;98.00;;;;;;5037625;28;20034;-68
2022/01/21 02:06:07;;;;;;;16.45;5.68;;;-1.10;98.00;;;;;;5046212;28;20025;-67
2022/01/21 02:08:33;;;;;;;11.30;5.80;;;-1.20;98.00;;;;;;5045733;28;20104;-68
2022/01/21 02:10:59;;;;;;;21.65;5.22;;;-1.20;98.00;;;;;;5050072;28;20021;-68
2022/01/21 02:13:28;;;;;;;15.43;4.72;;;-1.10;98.00;;;;;;5051470;28;20112;-67
2022/01/21 02:16:09;;;;;;;13.35;4.85;;;-1.10;98.00;;;;;;5057080;28;20020;-67
2022/01/21 02:21:39;;;;;;;14.30;4.88;;;-1.10;98.00;;;;;;5042690;28;20032;-68
2022/01/21 02:24:07;;;;;;;17.98;5.47;;;-1.10;98.00;;;;;;5036595;28;21753;-68
2022/01/21 02:26:33;;;;;;;14.25;4.78;;;-1.20;98.00;;;;;;5036126;28;20330;-68
2022/01/21 02:29:01;;;;;;;15.40;5.25;;;-1.20;98.00;;;;;;5044514;28;20048;-67
2022/01/21 02:31:29;;;;;;;14.07;5.25;;;-1.20;98.00;;;;;;5046720;28;20036;-67
2022/01/21 02:33:55;;;;;;;15.57;5.85;;;-1.10;98.00;;;;;;5044897;28;20021;-68
2022/01/21 02:36:21;;;;;;;15.27;5.18;;;-1.10;98.00;;;;;;5042658;28;20508;-69
2022/01/21 02:38:46;;;;;;;12.70;5.10;;;-1.10;98.00;;;;;;5041297;28;20358;-68
2022/01/21 02:41:12;;;;;;;12.55;5.43;;;-1.10;98.00;;;;;;5040826;28;20034;-68
2022/01/21 02:43:38;;;;;;;15.48;5.43;;;-1.10;98.00;;;;;;5040967;28;20107;-67
2022/01/21 02:46:07;;;;;;;15.30;6.55;;;-1.10;98.00;;;;;;5044041;28;20322;-68
2022/01/21 02:48:36;;;;;;;10.95;4.70;;;-1.10;98.00;;;;;;5059549;28;20025;-68
2022/01/21 02:51:02;;;;;;;12.80;5.00;;;-1.10;98.00;;;;;;5056712;28;20053;-68
2022/01/21 02:54:04;;;;;;;15.60;5.30;;;-1.10;98.00;;;;;;5040375;28;20021;-67
2022/01/21 02:56:27;;;;;;;12.88;5.22;;;-1.10;98.00;;;;;;5043624;28;20108;-67
2022/01/21 02:58:53;;;;;;;9.98;4.70;;;-1.10;98.00;;;;;;5046889;28;20024;-67
2022/01/21 03:01:18;;;;;;;13.80;4.95;;;-1.10;98.00;;;;;;5039772;28;20319;-67
2022/01/21 03:03:45;;;;;;;16.58;5.45;;;-1.10;98.00;;;;;;5048110;28;20033;-66
2022/01/21 03:06:17;;;;;;;12.38;4.82;;;-1.10;98.00;;;;;;5039388;28;20029;-67
2022/01/21 03:08:48;;;;;;;16.35;5.00;;;-1.10;98.00;;;;;;5044627;28;20426;-68
2022/01/21 03:11:13;;;;;;;13.27;5.07;;;-1.10;98.00;;;;;;5041929;28;20428;-67
2022/01/21 03:13:41;;;;;;;14.63;4.53;;;-1.10;98.00;;;;;;5042800;28;20132;-67
2022/01/21 03:16:07;;;;;;;14.93;4.97;;;-1.10;98.00;;;;;;5041555;28;20418;-68
2022/01/21 03:18:33;;;;;;;12.52;4.80;;;-1.10;98.00;;;;;;5041219;28;20048;-68
2022/01/21 03:20:59;;;;;;;15.30;4.40;;;-1.10;98.00;;;;;;5037215;28;20025;-67
2022/01/21 03:23:29;;;;;;;19.27;4.70;;;-1.10;98.00;;;;;;5043495;28;20038;-68
2022/01/21 03:25:55;;;;;;;16.33;4.40;;;-1.10;98.00;;;;;;5038460;28;20028;-67
2022/01/21 03:28:23;;;;;;;15.85;4.72;;;-1.10;98.00;;;;;;5043316;28;20072;-68
2022/01/21 03:30:54;;;;;;;15.35;4.70;;;-1.10;98.00;;;;;;5044014;28;20393;-68
2022/01/21 03:33:20;;;;;;;16.13;4.80;;;-1.10;98.00;;;;;;5038464;28;20032;-68
2022/01/21 03:35:46;;;;;;;14.73;6.05;;;-1.10;98.00;;;;;;5044559;28;20017;-68
2022/01/21 03:38:11;;;;;;;13.60;4.63;;;-1.10;98.00;;;;;;5042889;28;20573;-67
2022/01/21 03:40:37;;;;;;;18.50;5.13;;;-1.10;98.00;;;;;;5039930;28;20034;-68
2022/01/21 03:43:03;;;;;;;12.60;4.22;;;-1.10;98.00;;;;;;5047298;28;20029;-68
2022/01/21 03:45:31;;;;;;;14.20;4.85;;;-1.20;98.00;;;;;;5038646;28;20028;-67
2022/01/21 03:47:57;;;;;;;13.70;4.72;;;-1.20;98.00;;;;;;5040327;28;20083;-68
2022/01/21 03:50:32;;;;;;;13.50;4.50;;;-1.20;98.00;;;;;;5038439;28;20350;-68
2022/01/21 03:53:00;;;;;;;12.35;4.07;;;-1.20;98.00;;;;;;5044788;28;20025;-68
2022/01/21 03:55:26;;;;;;;12.40;4.50;;;-1.20;98.00;;;;;;5053501;28;20033;-67
2022/01/21 03:57:52;;;;;;;13.60;4.25;;;-1.20;98.00;;;;;;5041196;28;20060;-68
2022/01/21 04:00:24;;;;;;;12.48;4.57;;;-1.20;98.00;;;;;;5042602;28;20024;-67
2022/01/21 04:02:50;;;;;;;15.52;4.90;;;-1.20;98.00;;;;;;5043683;28;20076;-66
2022/01/21 04:05:16;;;;;;;11.63;4.20;;;-1.20;98.00;;;;;;5043528;28;20044;-66
2022/01/21 04:07:41;;;;;;;12.18;5.00;;;-1.20;98.00;;;;;;5037276;28;20040;-66
2022/01/21 04:10:08;;;;;;;16.00;4.97;;;-1.20;98.00;;;;;;5044710;28;20105;-66
2022/01/21 04:12:34;;;;;;;16.35;7.10;;;-1.20;98.00;;;;;;5038355;28;20028;-68
2022/01/21 04:15:00;;;;;;;14.98;4.65;;;-1.20;98.00;;;;;;5045565;28;20033;-68
2022/01/21 04:17:26;;;;;;;13.25;4.00;;;-1.20;98.00;;;;;;5039507;28;20025;-66
2022/01/21 04:19:52;;;;;;;15.00;4.50;;;-1.20;98.00;;;;;;5037769;28;20038;-68
2022/01/21 04:22:17;;;;;;;19.30;5.60;;;-1.20;98.00;;;;;;5039183;28;20479;-68
2022/01/21 04:24:48;;;;;;;13.68;5.32;;;-1.20;98.00;;;;;;5038093;28;20132;-68
2022/01/21 04:27:18;;;;;;;14.55;5.05;;;-1.20;98.00;;;;;;5043510;28;20051;-67
2022/01/21 04:29:44;;;;;;;13.38;4.28;;;-1.30;98.00;;;;;;5034199;28;20354;-67
2022/01/21 04:32:10;;;;;;;10.88;5.25;;;-1.20;98.00;;;;;;5044299;28;20037;-67
2022/01/21 04:34:37;;;;;;;11.38;5.35;;;-1.30;98.00;;;;;;5046206;28;20154;-67
2022/01/21 04:37:07;;;;;;;10.95;3.90;;;-1.30;98.00;;;;;;5041315;28;21804;-67
2022/01/21 04:39:38;;;;;;;14.68;4.95;;;-1.30;98.00;;;;;;5038019;28;20489;-68
2022/01/21 04:47:35;;;;;;;17.13;5.32;;;-1.30;98.00;;;;;;5034461;28;20036;-67
2022/01/21 04:50:02;;;;;;;19.20;7.90;;;-1.30;98.00;;;;;;5043403;28;20402;-67
2022/01/21 04:52:28;;;;;;;15.90;5.90;;;-1.30;98.00;;;;;;5044721;28;20067;-68
2022/01/21 04:54:53;;;;;;;22.08;5.97;;;-1.30;98.00;;;;;;5037799;28;20401;-67
2022/01/21 04:57:19;;;;;;;16.98;4.95;;;-1.40;98.00;;;;;;5036339;28;20515;-67
2022/01/21 04:59:46;;;;;;;21.35;6.38;;;-1.40;98.00;;;;;;5036089;28;20025;-68
2022/01/21 05:02:12;;;;;;;19.88;5.32;;;-1.40;98.00;;;;;;5047716;28;20053;-67
2022/01/21 05:04:40;;;;;;;22.25;7.82;;;-1.40;98.00;;;;;;5047152;28;20080;-68
2022/01/21 05:07:10;;;;;;;23.73;7.78;;;-1.40;98.00;;;;;;5039761;28;20091;-68
2022/01/21 05:09:36;;;;;;;24.50;10.45;;;-1.40;98.00;;;;;;5037055;28;20029;-68
2022/01/21 05:12:09;;;;;;;16.70;6.85;;;-1.40;98.00;;;;;;5039934;28;20318;-68
2022/01/21 05:17:17;;;;;;;19.05;6.22;;;-1.40;98.00;;;;;;5042642;28;20103;-67
2022/01/21 05:19:43;;;;;;;18.85;8.23;;;-1.40;98.00;;;;;;5035108;28;20116;-68
2022/01/21 05:22:09;;;;;;;23.55;7.00;;;-1.50;98.00;;;;;;5034755;28;20048;-68
2022/01/21 05:24:35;;;;;;;20.15;8.27;;;-1.50;98.00;;;;;;5039281;28;20045;-67
2022/01/21 05:27:01;;;;;;;16.73;6.43;;;-1.50;98.00;;;;;;5041286;28;20079;-68
2022/01/21 05:29:32;;;;;;;16.05;7.78;;;-1.50;98.00;;;;;;5038015;28;20327;-68
2022/01/21 05:31:59;;;;;;;20.33;6.93;;;-1.50;98.00;;;;;;5038171;28;20358;-68
2022/01/21 05:34:25;;;;;;;14.93;6.00;;;-1.50;98.00;;;;;;5044011;28;20113;-68
2022/01/21 05:36:51;;;;;;;17.45;6.47;;;-1.60;98.00;;;;;;5047158;28;20326;-68
2022/01/21 05:39:18;;;;;;;25.70;6.70;;;-1.60;98.00;;;;;;5056918;28;20029;-67
2022/01/21 05:41:47;;;;;;;20.40;7.70;;;-1.60;98.00;;;;;;5052400;28;20029;-66
2022/01/21 05:47:03;;;;;;;18.70;7.95;;;-1.70;98.00;;;;;;5047574;28;20063;-68
2022/01/21 05:49:31;;;;;;;26.00;8.13;;;-1.70;98.00;;;;;;5058750;28;20047;-67
2022/01/21 05:52:07;;;;;;;16.20;6.45;;;-1.70;98.00;;;;;;5052933;28;20029;-68
2022/01/21 05:54:33;;;;;;;18.75;6.20;;;-1.70;98.00;;;;;;5053697;28;20033;-67
2022/01/21 05:57:04;;;;;;;19.67;7.20;;;-1.70;98.00;;;;;;5049812;28;20066;-68
2022/01/21 05:59:30;;;;;;;17.25;7.15;;;-1.60;98.00;;;;;;5056802;28;20025;-68
2022/01/21 06:01:55;;;;;;;20.55;6.70;;;-1.60;98.00;;;;;;5038083;28;20131;-67
2022/01/21 06:04:21;;;;;;;18.13;7.03;;;-1.50;98.00;;;;;;5045919;28;20021;-67
2022/01/21 06:06:47;;;;;;;18.60;6.53;;;-1.50;98.00;;;;;;5038968;28;20017;-67
2022/01/21 06:09:16;;;;;;;12.35;5.47;;;-1.50;98.00;;;;;;5045928;28;20029;-68
2022/01/21 06:11:42;;;;;;;16.35;6.32;;;-1.40;98.00;;;;;;5041835;28;20114;-68
2022/01/21 06:14:07;;;;;;;17.60;6.82;;;-1.40;98.00;;;;;;5050778;28;20064;-68
2022/01/21 06:16:34;;;;;;;14.55;5.93;;;-1.40;98.00;;;;;;5042134;28;20029;-68
2022/01/21 06:19:00;;;;;;;20.60;8.30;;;-1.40;98.00;;;;;;5038097;28;20018;-67
2022/01/21 06:21:26;;;;;;;22.38;9.07;;;-1.40;98.00;;;;;;5047719;28;20059;-67
2022/01/21 06:23:52;;;;;;;26.73;9.82;;;-1.40;98.00;;;;;;5040052;28;20041;-68
2022/01/21 06:26:18;;;;;;;33.47;11.70;;;-1.30;98.00;;;;;;5053765;28;20035;-68
2022/01/21 06:28:43;;;;;;;27.38;9.57;;;-1.30;98.00;;;;;;5043580;28;20059;-68
2022/01/21 06:31:11;;;;;;;20.45;9.02;;;-1.30;98.00;;;;;;5037511;28;20056;-68
2022/01/21 06:33:37;;;;;;;24.42;7.65;;;-1.30;98.00;;;;;;5038634;28;20312;-68
2022/01/21 06:36:03;;;;;;;25.17;10.95;;;-1.30;98.00;;;;;;5055237;28;20036;-68
2022/01/21 06:38:28;;;;;;;27.40;11.73;;;-1.40;98.00;;;;;;5048790;28;20062;-68
2022/01/21 06:41:03;;;;;;;26.83;10.15;;;-1.40;98.00;;;;;;5040202;28;20104;-68
2022/01/21 06:43:32;;;;;;;16.05;6.53;;;-1.40;98.00;;;;;;5047169;28;20037;-68
2022/01/21 06:45:58;;;;;;;19.02;8.10;;;-1.30;98.00;;;;;;5047225;28;20025;-68
2022/01/21 06:48:25;;;;;;;25.77;11.90;;;-1.30;98.00;;;;;;5039108;28;20136;-69
2022/01/21 06:50:51;;;;;;;22.15;8.77;;;-1.30;98.00;;;;;;5042769;28;20052;-68
2022/01/21 06:53:16;;;;;;;21.35;7.38;;;-1.30;98.00;;;;;;5038979;28;20025;-67
2022/01/21 06:55:46;;;;;;;21.30;9.60;;;-1.30;98.00;;;;;;5040688;28;20148;-69
2022/01/21 06:58:11;;;;;;;22.20;8.98;;;-1.30;98.00;;;;;;5037330;28;20422;-67
2022/01/21 07:00:37;;;;;;;31.40;10.88;;;-1.30;98.00;;;;;;5038810;28;20029;-66
2022/01/21 07:03:03;;;;;;;19.27;7.82;;;-1.30;98.00;;;;;;5044880;28;20108;-66
2022/01/21 07:05:35;;;;;;;22.40;8.18;;;-1.30;98.00;;;;;;5044169;28;20034;-66
2022/01/21 07:08:01;;;;;;;16.60;6.75;;;-1.40;98.00;;;;;;5047729;28;20410;-68
2022/01/21 07:10:29;;;;;;;18.52;6.88;;;-1.30;98.00;;;;;;5046246;28;20086;-68
2022/01/21 07:12:56;;;;;;;18.60;6.28;;;-1.30;98.00;;;;;;5046285;28;20431;-68
2022/01/21 07:15:21;;;;;;;16.60;6.32;;;-1.40;98.00;;;;;;5041474;28;20037;-68
2022/01/21 07:17:49;;;;;;;20.60;6.15;;;-1.40;98.00;;;;;;5044343;28;20314;-69
2022/01/21 07:20:15;;;;;;;12.88;5.60;;;-1.40;98.00;;;;;;5044696;28;20026;-68
2022/01/21 07:22:46;;;;;;;17.30;5.50;;;-1.40;98.00;;;;;;5045697;28;20164;-68
2022/01/21 07:25:13;;;;;;;22.13;6.47;;;-1.50;98.00;;;;;;5045493;28;20045;-68
2022/01/21 07:27:39;;;;;;;18.52;6.45;;;-1.40;98.00;;;;;;5049441;28;20456;-68
2022/01/21 07:30:05;;;;;;;15.73;7.65;;;-1.40;98.00;;;;;;5043242;28;20063;-67
2022/01/21 07:32:31;;;;;;;25.83;7.82;;;-1.40;98.00;;;;;;5041466;28;20021;-68
2022/01/21 07:34:57;;;;;;;20.92;7.85;;;-1.30;98.00;;;;;;5052556;28;20025;-68
2022/01/21 07:37:23;;;;;;;20.55;7.60;;;-1.30;98.00;;;;;;5037997;28;20059;-68
2022/01/21 07:39:49;;;;;;;18.83;7.70;;;-1.30;98.00;;;;;;5043581;28;20045;-67
2022/01/21 07:42:15;;;;;;;21.55;8.73;;;-1.20;98.00;;;;;;5047844;28;20021;-68
2022/01/21 07:44:40;;;;;;;27.23;11.70;;;-1.20;98.00;;;;;;5043819;28;20447;-68
2022/01/21 07:47:06;;;;;;;18.35;8.20;;;-1.30;98.00;;;;;;5041891;28;20031;-68
2022/01/21 07:49:32;;;;;;;23.33;11.00;;;-1.20;98.00;;;;;;5041022;28;20033;-67
2022/01/21 07:51:58;;;;;;;29.02;9.93;;;-1.20;98.00;;;;;;5042260;28;20051;-68
2022/01/21 07:54:24;;;;;;;27.02;13.93;;;-1.30;98.00;;;;;;5039048;28;20627;-68
2022/01/21 07:56:49;;;;;;;27.23;11.48;;;-1.30;98.00;;;;;;5045371;28;20033;-68
2022/01/21 07:59:16;;;;;;;16.27;7.63;;;-1.20;98.00;;;;;;5036087;28;20029;-66
2022/01/21 08:01:42;;;;;;;17.92;8.55;;;-1.20;98.00;;;;;;5041859;28;20380;-68
2022/01/21 08:04:09;;;;;;;29.00;9.30;;;-1.20;98.00;;;;;;5036158;28;20101;-67
2022/01/21 08:06:35;;;;;;;21.42;6.60;;;-1.20;98.00;;;;;;5037503;28;20021;-68
2022/01/21 08:09:02;;;;;;;18.85;10.30;;;-1.20;98.00;;;;;;5037264;28;20030;-67
2022/01/21 08:11:28;;;;;;;18.48;8.82;;;-1.20;98.00;;;;;;5037144;28;20340;-68
2022/01/21 08:13:54;;;;;;;30.70;13.63;;;-1.20;98.00;;;;;;5040985;28;20099;-68
2022/01/21 08:16:20;;;;;;;18.60;7.47;;;-1.10;98.00;;;;;;5044352;28;20029;-67
2022/01/21 08:18:45;;;;;;;22.35;8.55;;;-1.20;98.00;;;;;;5041370;28;20461;-68
2022/01/21 08:21:18;;;;;;;20.98;7.10;;;-1.10;98.00;;;;;;5040412;28;20033;-69
2022/01/21 08:23:48;;;;;;;23.50;8.00;;;-1.10;98.00;;;;;;5041751;28;20893;-67
2022/01/21 08:26:14;;;;;;;26.88;8.63;;;-1.10;98.00;;;;;;5041511;28;20057;-67
2022/01/21 08:28:39;;;;;;;26.13;11.88;;;-1.10;98.00;;;;;;5050197;28;20029;-67
2022/01/21 08:31:05;;;;;;;21.20;9.90;;;-1.10;98.00;;;;;;5041792;28;20037;-68
2022/01/21 08:33:31;;;;;;;19.77;8.52;;;-1.10;98.00;;;;;;5040503;28;20029;-68
2022/01/21 08:35:56;;;;;;;22.42;10.27;;;-1.10;98.00;;;;;;5036742;28;20034;-67
2022/01/21 08:38:22;;;;;;;16.63;7.50;;;-1.00;98.00;;;;;;5043268;28;20116;-68
2022/01/21 08:40:48;;;;;;;18.27;8.40;;;-1.00;98.00;;;;;;5054094;28;20035;-68
2022/01/21 08:43:14;;;;;;;32.40;14.55;;;-1.00;98.00;;;;;;5054882;28;20060;-68
2022/01/21 08:45:40;;;;;;;17.98;8.55;;;-0.90;98.00;;;;;;5050446;28;20029;-68
2022/01/21 08:48:05;;;;;;;25.98;9.50;;;-0.90;98.00;;;;;;5034531;28;20450;-68
2022/01/21 08:50:31;;;;;;;18.50;8.32;;;-0.80;98.00;;;;;;5042942;28;20033;-68
2022/01/21 08:53:08;;;;;;;23.33;10.15;;;-0.80;98.00;;;;;;5055548;28;20032;-68
2022/01/21 08:55:34;;;;;;;23.58;7.82;;;-0.70;98.00;;;;;;5046421;28;20361;-68
2022/01/21 08:58:00;;;;;;;18.70;7.50;;;-0.70;98.00;;;;;;5047345;28;20021;-67
2022/01/21 09:00:26;;;;;;;22.23;8.40;;;-0.60;98.00;;;;;;5035723;28;20021;-68
2022/01/21 09:02:53;;;;;;;21.10;7.70;;;-0.50;98.00;;;;;;5033658;28;20043;-68
2022/01/21 09:05:19;;;;;;;17.08;8.13;;;-0.60;98.00;;;;;;5035475;28;20040;-68
2022/01/21 09:07:44;;;;;;;24.05;8.52;;;-0.60;98.00;;;;;;5036549;28;20014;-67
2022/01/21 09:10:11;;;;;;;19.98;10.25;;;-0.40;98.00;;;;;;5054484;28;20298;-68
2022/01/21 09:12:40;;;;;;;24.00;9.95;;;-0.30;98.00;;;;;;5045678;28;20033;-67
2022/01/21 09:15:08;;;;;;;24.45;12.23;;;-0.30;98.00;;;;;;5044118;28;20021;-68
2022/01/21 09:17:36;;;;;;;20.08;9.00;;;-0.30;98.00;;;;;;5053039;28;20029;-67
2022/01/21 09:20:03;;;;;;;24.38;8.20;;;-0.40;98.00;;;;;;5059146;28;20413;-68
2022/01/21 09:22:32;;;;;;;19.70;8.35;;;-0.40;98.00;;;;;;5054026;28;20043;-68
2022/01/21 09:24:58;;;;;;;19.63;7.25;;;-0.50;98.00;;;;;;5047218;28;20046;-68
2022/01/21 09:27:23;;;;;;;19.65;8.40;;;-0.50;98.00;;;;;;5046098;28;20025;-67
2022/01/21 09:29:49;;;;;;;22.38;9.85;;;-0.40;98.00;;;;;;5043760;28;20024;-68
2022/01/21 09:32:15;;;;;;;20.63;7.03;;;-0.30;98.00;;;;;;5051664;28;20032;-67
2022/01/21 09:34:41;;;;;;;19.90;7.97;;;-0.20;98.00;;;;;;5068742;28;20025;-68
2022/01/21 09:37:07;;;;;;;26.58;7.63;;;-0.30;98.00;;;;;;5058955;28;20028;-69
2022/01/21 09:39:32;;;;;;;23.38;10.43;;;-0.20;98.00;;;;;;5051864;28;20040;-68
2022/01/21 09:42:00;;;;;;;22.10;6.88;;;0.00;98.00;;;;;;5055751;28;20028;-68
2022/01/21 09:44:28;;;;;;;30.15;13.23;;;0.20;98.00;;;;;;5052822;28;20324;-66
2022/01/21 09:46:57;;;;;;;18.38;7.05;;;0.30;98.00;;;;;;5043117;28;20025;-66
2022/01/21 09:49:26;;;;;;;19.00;6.72;;;0.50;97.90;;;;;;5044434;28;20437;-66
2022/01/21 09:51:55;;;;;;;17.77;6.95;;;0.50;97.30;;;;;;5045522;28;20158;-66
2022/01/21 09:54:22;;;;;;;16.83;6.25;;;0.50;97.40;;;;;;5050194;28;20106;-66
2022/01/21 09:56:49;;;;;;;18.55;8.18;;;0.50;96.90;;;;;;5056497;28;20326;-66
2022/01/21 09:59:18;;;;;;;21.27;8.23;;;0.50;96.90;;;;;;5038271;28;20437;-66
2022/01/21 10:01:49;;;;;;;21.00;8.65;;;0.60;97.50;;;;;;5035623;28;20024;-65
2022/01/21 10:04:15;;;;;;;16.73;7.25;;;0.40;96.90;;;;;;5041097;28;20418;-68
2022/01/21 10:06:46;;;;;;;24.98;9.68;;;0.30;97.70;;;;;;5037633;28;20021;-67
2022/01/21 10:09:15;;;;;;;25.88;9.57;;;0.30;98.00;;;;;;5041864;28;20033;-68
2022/01/21 10:11:47;;;;;;;17.20;6.22;;;0.40;98.00;;;;;;5042107;28;20449;-67
2022/01/21 10:14:14;;;;;;;16.50;5.95;;;0.40;97.30;;;;;;5037514;28;20446;-68
2022/01/21 10:16:43;;;;;;;13.02;6.35;;;0.40;96.60;;;;;;5036747;28;20357;-68
2022/01/21 10:19:11;;;;;;;17.73;8.13;;;0.40;96.70;;;;;;5036443;28;20017;-67
2022/01/21 10:21:39;;;;;;;14.07;6.03;;;0.60;96.80;;;;;;5049096;28;20368;-66
2022/01/21 10:24:09;;;;;;;19.58;5.53;;;0.70;96.30;;;;;;5053293;28;20049;-67
2022/01/21 10:26:35;;;;;;;14.20;5.60;;;0.60;96.30;;;;;;5054956;28;20411;-68
2022/01/21 10:29:01;;;;;;;20.95;7.13;;;0.70;96.30;;;;;;5055098;28;20086;-67
2022/01/21 10:31:27;;;;;;;19.35;6.15;;;0.80;95.60;;;;;;5053867;28;20446;-67
2022/01/21 10:34:02;;;;;;;17.63;6.85;;;0.90;94.90;;;;;;5039070;28;20032;-68
2022/01/21 10:36:33;;;;;;;17.23;6.18;;;1.10;94.30;;;;;;5037968;28;20466;-68
2022/01/21 10:39:11;;;;;;;15.18;6.15;;;1.30;93.50;;;;;;5048041;28;20085;-68
2022/01/21 10:41:42;;;;;;;14.82;4.88;;;1.70;92.50;;;;;;5036814;28;20052;-68
2022/01/21 10:44:13;;;;;;;16.45;5.55;;;2.10;91.50;;;;;;5036557;28;20045;-69
2022/01/21 10:46:49;;;;;;;16.90;5.40;;;2.60;90.40;;;;;;5037880;28;20481;-66
2022/01/21 10:49:20;;;;;;;19.33;5.88;;;2.80;88.50;;;;;;5044766;28;20199;-67
2022/01/21 10:51:50;;;;;;;17.42;5.57;;;2.70;89.10;;;;;;5042974;28;20099;-67
2022/01/21 10:54:19;;;;;;;14.13;5.10;;;2.30;89.40;;;;;;5036016;28;20492;-67
2022/01/21 10:57:10;;;;;;;15.35;4.88;;;2.00;90.20;;;;;;5036783;28;20033;-66
2022/01/21 10:59:59;;;;;;;14.15;4.80;;;2.00;90.40;;;;;;5051581;28;20315;-67
2022/01/21 11:02:48;;;;;;;11.88;4.60;;;2.00;89.90;;;;;;5034628;28;20032;-67
2022/01/21 11:05:32;;;;;;;12.48;4.63;;;2.30;89.10;;;;;;5036724;28;20039;-66
2022/01/21 11:08:03;;;;;;;13.60;4.88;;;3.10;87.10;;;;;;5034521;28;20080;-68
2022/01/21 11:10:32;;;;;;;15.32;5.20;;;3.40;86.10;;;;;;5036205;28;20029;-66
2022/01/21 11:13:03;;;;;;;15.98;4.78;;;2.90;86.80;;;;;;5037620;28;20029;-67
2022/01/21 11:15:45;;;;;;;14.45;5.00;;;2.50;88.10;;;;;;5036356;28;20496;-67
2022/01/21 11:18:15;;;;;;;11.00;4.90;;;2.50;89.40;;;;;;5038547;28;20033;-68
2022/01/21 11:20:43;;;;;;;14.50;5.82;;;2.70;88.70;;;;;;5054464;28;20026;-68
2022/01/21 11:23:10;;;;;;;12.30;5.50;;;2.60;88.60;;;;;;5044323;28;20056;-68
2022/01/21 11:25:50;;;;;;;14.25;4.50;;;2.70;87.90;;;;;;5038810;28;20021;-68
2022/01/21 11:28:25;;;;;;;15.02;5.97;;;3.70;87.10;;;;;;5063160;28;20033;-68
2022/01/21 11:30:53;;;;;;;10.43;4.32;;;4.30;85.10;;;;;;5036725;28;20404;-68
2022/01/21 11:33:23;;;;;;;16.20;5.60;;;4.30;82.60;;;;;;5035531;28;20095;-68
2022/01/21 11:35:51;;;;;;;18.63;6.03;;;3.50;84.20;;;;;;5031368;28;20025;-67
2022/01/21 11:38:19;;;;;;;17.90;5.97;;;3.60;85.30;;;;;;5035572;28;20457;-68
2022/01/21 11:40:47;;;;;;;11.77;4.93;;;4.40;84.30;;;;;;5035876;28;20053;-68
2022/01/21 11:43:14;;;;;;;18.67;6.05;;;4.20;82.50;;;;;;5042314;28;20021;-67
2022/01/21 11:46:05;;;;;;;15.45;5.15;;;3.60;84.30;;;;;;5036534;28;20025;-68
2022/01/21 11:51:20;;;;;;;14.63;5.57;;;4.10;82.60;;;;;;5035337;28;20075;-67
2022/01/21 11:53:52;;;;;;;12.68;5.05;;;4.30;83.80;;;;;;5037357;28;20025;-68
2022/01/21 11:56:36;;;;;;;15.57;4.50;;;4.00;83.10;;;;;;5037496;28;20037;-68
2022/01/21 11:59:32;;;;;;;15.07;4.97;;;3.30;84.30;;;;;;5037757;28;20033;-68
2022/01/21 12:02:00;;;;;;;13.45;5.57;;;2.90;85.60;;;;;;5042387;28;20334;-67
2022/01/21 12:04:44;;;;;;;16.20;5.90;;;2.50;87.30;;;;;;5045520;28;20031;-68
2022/01/21 12:07:40;;;;;;;10.45;4.45;;;2.00;88.90;;;;;;5035806;28;20036;-68
2022/01/21 12:10:14;;;;;;;15.07;5.30;;;1.60;89.90;;;;;;5046993;28;20041;-68
2022/01/21 12:12:50;;;;;;;15.00;5.30;;;1.70;90.90;;;;;;5046005;28;20116;-68
2022/01/21 12:15:29;;;;;;;18.08;6.35;;;1.80;90.60;;;;;;5041595;28;20323;-68
2022/01/21 12:20:42;;;;;;;23.45;5.97;;;2.20;89.00;;;;;;5046105;28;20429;-68
2022/01/21 12:23:12;;;;;;;12.18;4.63;;;2.60;88.00;;;;;;5054143;28;20055;-68
2022/01/21 12:26:16;;;;;;;21.95;6.70;;;2.70;86.40;;;;;;5048262;28;20029;-68
2022/01/21 12:28:52;;;;;;;15.77;5.22;;;2.60;87.20;;;;;;5051818;28;20029;-68
2022/01/21 12:31:23;;;;;;;15.07;4.97;;;2.60;88.20;;;;;;5049915;28;20165;-68
2022/01/21 12:34:10;;;;;;;14.60;5.22;;;2.50;87.40;;;;;;5067773;28;20024;-68
2022/01/21 12:36:46;;;;;;;16.55;5.53;;;2.40;87.70;;;;;;5056600;28;20044;-68
2022/01/21 12:39:41;;;;;;;13.77;4.85;;;2.40;87.90;;;;;;5055507;28;20051;-69
2022/01/21 12:42:23;;;;;;;10.05;4.13;;;2.20;87.70;;;;;;5047978;28;20099;-68
2022/01/21 12:45:16;;;;;;;14.25;5.05;;;2.10;87.50;;;;;;5035427;28;20018;-68
2022/01/21 12:47:44;;;;;;;19.92;6.82;;;2.00;88.40;;;;;;5052872;28;20028;-67
2022/01/21 12:50:28;;;;;;;13.90;5.50;;;2.10;88.40;;;;;;5078341;28;20029;-67
2022/01/21 12:53:08;;;;;;;14.23;4.55;;;1.90;88.70;;;;;;5050761;28;20034;-68
2022/01/21 12:55:55;;;;;;;20.80;8.68;;;1.80;88.70;;;;;;5059100;28;20375;-66
2022/01/21 12:58:29;;;;;;;16.25;5.15;;;1.80;88.90;;;;;;5042830;28;20029;-67
2022/01/21 13:00:58;;;;;;;17.27;5.77;;;1.70;89.70;;;;;;5068239;28;20082;-68
2022/01/21 13:03:35;;;;;;;17.90;5.60;;;1.60;90.00;;;;;;5043138;28;20315;-68
2022/01/21 13:06:21;;;;;;;31.17;11.70;;;1.50;90.30;;;;;;5050322;28;20322;-67
2022/01/21 13:09:02;;;;;;;16.25;5.93;;;1.50;90.80;;;;;;5038448;28;20314;-68
2022/01/21 13:11:30;;;;;;;17.63;5.60;;;1.40;90.50;;;;;;5047020;28;20151;-66
2022/01/21 13:14:34;;;;;;;20.27;7.93;;;1.10;90.60;;;;;;5038366;28;20025;-68
2022/01/21 13:17:11;;;;;;;15.10;6.43;;;1.10;91.80;;;;;;5038485;28;20034;-67
2022/01/21 13:19:50;;;;;;;21.08;9.23;;;1.30;91.90;;;;;;5052949;28;20056;-68
2022/01/21 13:22:25;;;;;;;20.23;7.63;;;1.40;91.70;;;;;;5056806;28;20037;-67
2022/01/21 13:25:08;;;;;;;13.93;5.18;;;1.50;90.40;;;;;;5038278;28;20037;-68
2022/01/21 13:27:36;;;;;;;17.15;7.35;;;1.60;90.70;;;;;;5045312;28;20454;-68
2022/01/21 13:30:07;;;;;;;22.27;10.00;;;1.40;89.80;;;;;;5056740;28;20053;-68
2022/01/21 13:32:33;;;;;;;16.67;6.20;;;1.30;90.00;;;;;;5051487;28;20043;-67
2022/01/21 13:35:13;;;;;;;13.32;6.38;;;1.30;91.10;;;;;;5057733;28;20377;-68
2022/01/21 13:37:42;;;;;;;14.45;4.38;;;1.40;91.10;;;;;;5041616;28;20022;-68
2022/01/21 13:40:09;;;;;;;12.43;4.82;;;1.50;90.50;;;;;;5037721;28;20330;-68
2022/01/21 13:42:36;;;;;;;16.77;6.97;;;1.60;90.70;;;;;;5038878;28;20337;-68